createdAt,value
2016-03-04T00:00:27.666Z,0
2016-03-04T00:01:27.825Z,0
2016-03-04T00:02:27.828Z,0
2016-03-04T00:03:27.816Z,0
2016-03-04T00:04:27.833Z,0
2016-03-04T00:05:27.820Z,0
2016-03-04T00:06:27.823Z,0
2016-03-04T00:07:27.826Z,0
2016-03-04T00:08:27.813Z,0
2016-03-04T00:09:27.816Z,0
2016-03-04T00:10:27.819Z,0
2016-03-04T00:11:27.837Z,0
2016-03-04T00:12:27.808Z,0
2016-03-04T00:13:27.810Z,0
2016-03-04T00:14:27.813Z,0
2016-03-04T00:15:27.660Z,0
2016-03-04T00:16:27.834Z,0
2016-03-04T00:17:27.837Z,0
2016-03-04T00:18:27.809Z,0
2016-03-04T00:19:27.811Z,0
2016-03-04T00:20:27.829Z,0
2016-03-04T00:21:27.801Z,0
2016-03-04T00:22:27.850Z,0
2016-03-04T00:23:27.806Z,0
2016-03-04T00:24:27.840Z,0
2016-03-04T00:25:27.781Z,0
2016-03-04T00:26:27.815Z,0
2016-03-04T00:27:27.801Z,0
2016-03-04T00:28:27.805Z,0
2016-03-04T00:29:27.822Z,0
2016-03-04T00:30:27.638Z,0
2016-03-04T00:31:27.691Z,0
2016-03-04T00:32:27.809Z,0
2016-03-04T00:33:27.827Z,0
2016-03-04T00:34:27.799Z,0
2016-03-04T00:35:27.818Z,0
2016-03-04T00:36:27.820Z,0
2016-03-04T00:37:27.806Z,0
2016-03-04T00:38:27.793Z,0
2016-03-04T00:39:27.797Z,0
2016-03-04T00:40:27.643Z,0
2016-03-04T00:41:27.802Z,0
2016-03-04T00:42:27.820Z,0
2016-03-04T00:43:27.792Z,0
2016-03-04T00:44:27.809Z,0
2016-03-04T00:45:27.797Z,0
2016-03-04T00:46:27.800Z,0
2016-03-04T00:47:27.818Z,0
2016-03-04T00:48:27.790Z,0
2016-03-04T00:49:27.808Z,0
2016-03-04T00:50:27.811Z,0
2016-03-04T00:51:27.797Z,0
2016-03-04T00:52:27.801Z,0
2016-03-04T00:53:27.788Z,0
2016-03-04T00:54:27.806Z,0
2016-03-04T00:55:27.794Z,0
2016-03-04T00:56:27.797Z,0
2016-03-04T00:57:27.799Z,0
2016-03-04T00:58:27.817Z,0
2016-03-04T00:59:27.820Z,0
2016-03-04T01:00:27.792Z,0
2016-03-04T01:01:27.778Z,0
2016-03-04T01:02:27.766Z,0
2016-03-04T01:03:27.800Z,0
2016-03-04T01:04:27.818Z,0
2016-03-04T01:05:27.806Z,0
2016-03-04T01:06:27.808Z,0
2016-03-04T01:07:27.780Z,0
2016-03-04T01:08:27.625Z,0
2016-03-04T01:09:27.800Z,0
2016-03-04T01:10:27.803Z,0
2016-03-04T01:11:27.806Z,0
2016-03-04T01:12:27.793Z,0
2016-03-04T01:13:27.780Z,0
2016-03-04T01:14:27.783Z,0
2016-03-04T01:15:27.785Z,0
2016-03-04T01:16:27.788Z,0
2016-03-04T01:17:27.775Z,0
2016-03-04T01:18:27.809Z,0
2016-03-04T01:19:27.779Z,0
2016-03-04T01:20:27.783Z,0
2016-03-04T01:21:27.785Z,0
2016-03-04T01:22:27.804Z,0
2016-03-04T01:23:27.790Z,0
2016-03-04T01:24:27.809Z,0
2016-03-04T01:25:27.812Z,0
2016-03-04T01:26:27.784Z,0
2016-03-04T01:27:27.786Z,0
2016-03-04T01:28:27.773Z,0
2016-03-04T01:29:27.807Z,0
2016-03-04T01:30:27.778Z,0
2016-03-04T01:31:27.781Z,0
2016-03-04T01:32:27.784Z,0
2016-03-04T01:33:27.787Z,0
2016-03-04T01:34:27.774Z,0
2016-03-04T01:35:27.777Z,0
2016-03-04T01:36:27.779Z,0
2016-03-04T01:37:27.782Z,0
2016-03-04T01:38:27.784Z,0
2016-03-04T01:39:27.803Z,0
2016-03-04T01:40:27.774Z,0
2016-03-04T01:41:27.777Z,0
2016-03-04T01:42:27.779Z,0
2016-03-04T01:43:34.157Z,0
2016-03-04T01:44:27.988Z,0
2016-03-04T01:45:28.007Z,0
2016-03-04T01:46:27.994Z,0
2016-03-04T01:47:27.980Z,0
2016-03-04T01:48:27.765Z,0
2016-03-04T01:49:27.768Z,0
2016-03-04T01:50:27.785Z,0
2016-03-04T01:51:27.787Z,0
2016-03-04T01:52:27.776Z,0
2016-03-04T01:53:27.763Z,0
2016-03-04T01:54:27.781Z,0
2016-03-04T01:55:27.767Z,0
2016-03-04T01:56:27.786Z,0
2016-03-04T01:57:27.773Z,0
2016-03-04T01:58:27.759Z,0
2016-03-04T01:59:27.762Z,0
2016-03-04T02:00:27.765Z,0
2016-03-04T02:01:27.784Z,0
2016-03-04T02:02:27.786Z,0
2016-03-04T02:03:27.759Z,0
2016-03-04T02:04:27.761Z,0
2016-03-04T02:05:27.779Z,0
2016-03-04T02:06:27.828Z,0
2016-03-04T02:07:27.783Z,0
2016-03-04T02:08:27.771Z,0
2016-03-04T02:09:27.758Z,0
2016-03-04T02:10:27.760Z,0
2016-03-04T02:11:27.763Z,0
2016-03-04T02:12:27.782Z,0
2016-03-04T02:13:27.768Z,0
2016-03-04T02:14:27.756Z,0
2016-03-04T02:15:27.774Z,0
2016-03-04T02:16:27.762Z,0
2016-03-04T02:17:27.764Z,0
2016-03-04T02:18:27.751Z,0
2016-03-04T02:19:27.770Z,0
2016-03-04T02:20:27.772Z,0
2016-03-04T02:21:27.759Z,0
2016-03-04T02:22:27.761Z,0
2016-03-04T02:23:27.748Z,0
2016-03-04T02:24:27.751Z,0
2016-03-04T02:25:27.770Z,0
2016-03-04T02:26:27.756Z,0
2016-03-04T02:27:27.764Z,0
2016-03-04T02:28:27.766Z,0
2016-03-04T02:29:27.769Z,0
2016-03-04T02:30:27.741Z,0
2016-03-04T02:31:27.775Z,0
2016-03-04T02:32:27.746Z,0
2016-03-04T02:33:27.749Z,0
2016-03-04T02:34:27.752Z,0
2016-03-04T02:35:27.755Z,0
2016-03-04T02:36:27.757Z,0
2016-03-04T02:37:27.760Z,0
2016-03-04T02:38:27.778Z,0
2016-03-04T02:39:27.749Z,0
2016-03-04T02:40:27.768Z,0
2016-03-04T02:41:27.739Z,0
2016-03-04T02:42:27.742Z,0
2016-03-04T02:43:27.745Z,0
2016-03-04T02:44:27.747Z,0
2016-03-04T02:45:27.734Z,0
2016-03-04T02:46:27.737Z,0
2016-03-04T02:47:27.598Z,0
2016-03-04T02:48:27.742Z,0
2016-03-04T02:49:27.745Z,0
2016-03-04T02:50:27.748Z,0
2016-03-04T02:51:27.734Z,0
2016-03-04T02:52:27.737Z,0
2016-03-04T02:53:27.739Z,0
2016-03-04T02:54:27.758Z,0
2016-03-04T02:55:27.745Z,0
2016-03-04T02:56:27.748Z,0
2016-03-04T02:57:27.736Z,0
2016-03-04T02:58:27.769Z,0
2016-03-04T02:59:27.772Z,0
2016-03-04T03:00:27.744Z,0
2016-03-04T03:01:27.747Z,0
2016-03-04T03:02:27.749Z,0
2016-03-04T03:03:27.736Z,0
2016-03-04T03:04:27.723Z,0
2016-03-04T03:05:27.741Z,0
2016-03-04T03:06:27.759Z,0
2016-03-04T03:07:27.762Z,0
2016-03-04T03:08:27.734Z,0
2016-03-04T03:09:27.737Z,0
2016-03-04T03:10:27.740Z,0
2016-03-04T03:11:27.742Z,0
2016-03-04T03:12:27.744Z,0
2016-03-04T03:13:27.731Z,0
2016-03-04T03:14:27.797Z,0
2016-03-04T03:15:27.737Z,0
2016-03-04T03:16:27.723Z,0
2016-03-04T03:17:27.726Z,0
2016-03-04T03:18:27.745Z,0
2016-03-04T03:19:27.747Z,0
2016-03-04T03:20:27.719Z,0
2016-03-04T03:21:27.722Z,0
2016-03-04T03:22:27.725Z,0
2016-03-04T03:23:27.742Z,0
2016-03-04T03:24:27.730Z,0
2016-03-04T03:25:27.716Z,0
2016-03-04T03:26:27.719Z,0
2016-03-04T03:27:27.723Z,0
2016-03-04T03:28:27.725Z,0
2016-03-04T03:29:27.791Z,0
2016-03-04T03:30:27.574Z,0
2016-03-04T03:31:27.733Z,0
2016-03-04T03:32:27.719Z,0
2016-03-04T03:33:27.722Z,0
2016-03-04T03:34:27.725Z,0
2016-03-04T03:35:27.728Z,0
2016-03-04T03:36:27.730Z,0
2016-03-04T03:37:27.718Z,0
2016-03-04T03:38:27.798Z,0
2016-03-04T03:39:27.723Z,0
2016-03-04T03:40:27.758Z,0
2016-03-04T03:41:27.729Z,0
2016-03-04T03:42:27.747Z,0
2016-03-04T03:43:27.703Z,0
2016-03-04T03:44:27.721Z,0
2016-03-04T03:45:27.754Z,0
2016-03-04T03:46:27.726Z,0
2016-03-04T03:47:27.729Z,0
2016-03-04T03:48:27.701Z,0
2016-03-04T03:49:27.735Z,0
2016-03-04T03:50:27.706Z,0
2016-03-04T03:51:27.724Z,0
2016-03-04T03:52:27.711Z,0
2016-03-04T03:53:27.746Z,0
2016-03-04T03:54:27.716Z,0
2016-03-04T03:55:27.703Z,0
2016-03-04T03:56:27.706Z,0
2016-03-04T03:57:27.709Z,0
2016-03-04T03:58:27.711Z,0
2016-03-04T03:59:27.714Z,0
2016-03-04T04:00:27.702Z,0
2016-03-04T04:01:27.704Z,0
2016-03-04T04:02:27.688Z,0
2016-03-04T04:03:27.710Z,0
2016-03-04T04:04:27.694Z,0
2016-03-04T04:05:27.696Z,0
2016-03-04T04:06:27.699Z,0
2016-03-04T04:07:27.686Z,0
2016-03-04T04:08:27.752Z,0
2016-03-04T04:09:27.692Z,0
2016-03-04T04:10:27.694Z,0
2016-03-04T04:11:27.682Z,0
2016-03-04T04:12:27.684Z,0
2016-03-04T04:13:27.702Z,0
2016-03-04T04:14:27.689Z,0
2016-03-04T04:15:27.693Z,0
2016-03-04T04:16:27.696Z,0
2016-03-04T04:17:27.682Z,0
2016-03-04T04:18:27.701Z,0
2016-03-04T04:19:27.703Z,0
2016-03-04T04:20:27.721Z,0
2016-03-04T04:21:27.692Z,0
2016-03-04T04:22:27.681Z,0
2016-03-04T04:23:27.683Z,0
2016-03-04T04:24:27.686Z,0
2016-03-04T04:25:27.703Z,0
2016-03-04T04:26:27.675Z,0
2016-03-04T04:27:27.677Z,0
2016-03-04T04:28:27.665Z,0
2016-03-04T04:29:27.684Z,0
2016-03-04T04:30:27.670Z,0
2016-03-04T04:31:27.672Z,0
2016-03-04T04:32:27.675Z,0
2016-03-04T04:33:27.663Z,0
2016-03-04T04:34:27.665Z,0
2016-03-04T04:35:27.652Z,0
2016-03-04T04:36:27.671Z,0
2016-03-04T04:37:27.689Z,0
2016-03-04T04:38:27.660Z,0
2016-03-04T04:39:27.663Z,0
2016-03-04T04:40:27.665Z,0
2016-03-04T04:41:27.668Z,0
2016-03-04T04:42:27.655Z,0
2016-03-04T04:43:27.657Z,0
2016-03-04T04:44:27.646Z,0
2016-03-04T04:45:27.663Z,0
2016-03-04T04:46:27.651Z,0
2016-03-04T04:47:27.653Z,0
2016-03-04T04:48:27.657Z,0
2016-03-04T04:49:27.690Z,0
2016-03-04T04:50:27.646Z,0
2016-03-04T04:51:27.664Z,0
2016-03-04T04:52:27.640Z,0
2016-03-04T04:53:27.514Z,0
2016-03-04T04:54:27.213Z,0
2016-03-04T04:55:27.564Z,0
2016-03-04T04:56:35.946Z,0
2016-03-04T04:57:27.664Z,0
2016-03-04T04:58:27.635Z,0
2016-03-04T04:59:27.654Z,0
2016-03-04T05:00:27.640Z,0
2016-03-04T05:01:27.659Z,0
2016-03-04T05:02:27.645Z,0
2016-03-04T05:03:27.632Z,0
2016-03-04T05:04:27.621Z,0
2016-03-04T05:05:27.638Z,0
2016-03-04T05:06:27.641Z,0
2016-03-04T05:07:27.643Z,0
2016-03-04T05:08:27.615Z,0
2016-03-04T05:09:27.618Z,0
2016-03-04T05:10:27.637Z,0
2016-03-04T05:11:27.623Z,0
2016-03-04T05:12:27.657Z,0
2016-03-04T05:13:27.613Z,0
2016-03-04T05:14:27.647Z,0
2016-03-04T05:15:27.633Z,0
2016-03-04T05:16:27.637Z,0
2016-03-04T05:17:27.640Z,0
2016-03-04T05:18:27.627Z,0
2016-03-04T05:19:27.614Z,0
2016-03-04T05:20:27.647Z,0
2016-03-04T05:21:27.619Z,0
2016-03-04T05:22:27.638Z,0
2016-03-04T05:23:27.609Z,0
2016-03-04T05:24:27.643Z,0
2016-03-04T05:25:27.599Z,0
2016-03-04T05:26:27.632Z,0
2016-03-04T05:27:27.604Z,0
2016-03-04T05:28:27.621Z,0
2016-03-04T05:29:27.610Z,0
2016-03-04T05:30:27.628Z,0
2016-03-04T05:31:27.599Z,0
2016-03-04T05:32:27.618Z,0
2016-03-04T05:33:27.604Z,0
2016-03-04T05:34:27.591Z,0
2016-03-04T05:35:27.594Z,0
2016-03-04T05:36:27.596Z,0
2016-03-04T05:37:27.631Z,0
2016-03-04T05:38:27.587Z,0
2016-03-04T05:39:27.620Z,0
2016-03-04T05:40:27.420Z,0
2016-03-04T05:41:27.609Z,0
2016-03-04T05:42:27.598Z,0
2016-03-04T05:43:27.585Z,0
2016-03-04T05:44:27.587Z,0
2016-03-04T05:45:27.575Z,0
2016-03-04T05:46:27.608Z,0
2016-03-04T05:47:27.580Z,0
2016-03-04T05:48:27.613Z,0
2016-03-04T05:49:27.569Z,0
2016-03-04T05:50:27.603Z,5
2016-03-04T05:51:27.575Z,5
2016-03-04T05:52:27.561Z,5
2016-03-04T05:53:27.580Z,5
2016-03-04T05:54:27.566Z,5
2016-03-04T05:55:27.586Z,5
2016-03-04T05:56:27.572Z,5
2016-03-04T05:57:27.591Z,5
2016-03-04T05:58:27.578Z,5
2016-03-04T05:59:27.565Z,10
2016-03-04T06:00:27.568Z,10
2016-03-04T06:01:27.570Z,10
2016-03-04T06:02:27.557Z,10
2016-03-04T06:03:27.576Z,10
2016-03-04T06:04:27.563Z,15
2016-03-04T06:05:27.582Z,15
2016-03-04T06:06:27.552Z,15
2016-03-04T06:07:27.555Z,20
2016-03-04T06:08:27.554Z,20
2016-03-04T06:09:27.530Z,20
2016-03-04T06:10:27.535Z,25
2016-03-04T06:11:27.525Z,25
2016-03-04T06:12:27.531Z,30
2016-03-04T06:13:27.475Z,35
2016-03-04T06:14:27.504Z,35
2016-03-04T06:15:27.487Z,35
2016-03-04T06:16:27.470Z,40
2016-03-04T06:17:27.468Z,55
2016-03-04T06:18:27.452Z,60
2016-03-04T06:19:27.468Z,65
2016-03-04T06:20:27.438Z,75
2016-03-04T06:21:27.470Z,75
2016-03-04T06:22:27.440Z,85
2016-03-04T06:23:27.425Z,80
2016-03-04T06:24:27.443Z,85
2016-03-04T06:25:27.429Z,85
2016-03-04T06:26:27.447Z,90
2016-03-04T06:27:27.433Z,90
2016-03-04T06:28:27.435Z,90
2016-03-04T06:29:27.438Z,90
2016-03-04T06:30:27.441Z,95
2016-03-04T06:31:27.444Z,95
2016-03-04T06:32:27.446Z,95
2016-03-04T06:33:27.418Z,105
2016-03-04T06:34:27.436Z,115
2016-03-04T06:35:27.423Z,130
2016-03-04T06:36:27.410Z,130
2016-03-04T06:37:27.429Z,135
2016-03-04T06:38:27.415Z,140
2016-03-04T06:39:27.434Z,135
2016-03-04T06:40:27.421Z,135
2016-03-04T06:41:27.423Z,130
2016-03-04T06:42:27.426Z,125
2016-03-04T06:43:27.445Z,130
2016-03-04T06:44:27.432Z,145
2016-03-04T06:45:27.434Z,160
2016-03-04T06:46:27.422Z,165
2016-03-04T06:47:27.424Z,160
2016-03-04T06:48:27.427Z,165
2016-03-04T06:49:27.444Z,165
2016-03-04T06:50:27.417Z,170
2016-03-04T06:51:27.436Z,190
2016-03-04T06:52:27.453Z,190
2016-03-04T06:53:27.425Z,200
2016-03-04T06:54:27.474Z,200
2016-03-04T06:55:27.461Z,200
2016-03-04T06:56:27.433Z,205
2016-03-04T06:57:27.435Z,205
2016-03-04T06:58:27.469Z,215
2016-03-04T06:59:27.441Z,225
2016-03-04T07:00:27.459Z,245
2016-03-04T07:01:27.477Z,240
2016-03-04T07:02:27.433Z,250
2016-03-04T07:03:27.421Z,265
2016-03-04T07:04:27.439Z,270
2016-03-04T07:05:27.426Z,245
2016-03-04T07:06:29.882Z,260
2016-03-04T07:07:29.385Z,300
2016-03-04T07:08:29.809Z,310
2016-03-04T07:09:29.514Z,320
2016-03-04T07:10:29.423Z,330
2016-03-04T07:11:29.801Z,330
2016-03-04T07:12:29.929Z,330
2016-03-04T07:13:29.807Z,340
2016-03-04T07:14:29.717Z,340
2016-03-04T07:15:29.828Z,340
2016-03-04T07:16:29.924Z,360
2016-03-04T07:17:29.755Z,375
2016-03-04T07:18:29.789Z,380
2016-03-04T07:19:29.947Z,385
2016-03-04T07:20:29.950Z,395
2016-03-04T07:21:27.985Z,340
2016-03-04T07:22:29.894Z,400
2016-03-04T07:23:30.005Z,430
2016-03-04T07:24:29.821Z,420
2016-03-04T07:25:29.480Z,395
2016-03-04T07:26:29.794Z,370
2016-03-04T07:27:29.876Z,355
2016-03-04T07:28:29.815Z,350
2016-03-04T07:29:29.802Z,345
2016-03-04T07:30:29.821Z,335
2016-03-04T07:31:29.901Z,340
2016-03-04T07:32:29.796Z,345
2016-03-04T07:33:29.532Z,345
2016-03-04T07:34:29.520Z,340
2016-03-04T07:35:29.788Z,345
2016-03-04T07:36:29.525Z,350
2016-03-04T07:37:29.762Z,350
2016-03-04T07:38:29.795Z,350
2016-03-04T07:39:29.659Z,365
2016-03-04T07:40:29.973Z,375
2016-03-04T07:41:30.179Z,375
2016-03-04T07:42:27.509Z,365
2016-03-04T07:43:27.512Z,355
2016-03-04T07:44:27.515Z,355
2016-03-04T07:45:27.580Z,365
2016-03-04T07:46:27.521Z,360
2016-03-04T07:47:27.523Z,355
2016-03-04T07:48:27.541Z,360
2016-03-04T07:49:27.544Z,345
2016-03-04T07:50:27.531Z,325
2016-03-04T07:51:27.533Z,310
2016-03-04T07:52:27.552Z,260
2016-03-04T07:53:27.554Z,200
2016-03-04T07:54:27.542Z,185
2016-03-04T07:55:27.544Z,180
2016-03-04T07:56:27.547Z,170
2016-03-04T07:57:27.566Z,170
2016-03-04T07:58:27.584Z,165
2016-03-04T07:59:27.555Z,170
2016-03-04T08:00:27.605Z,165
2016-03-04T08:01:27.577Z,160
2016-03-04T08:02:27.626Z,160
2016-03-04T08:03:27.581Z,160
2016-03-04T08:04:27.601Z,160
2016-03-04T08:05:27.603Z,160
2016-03-04T08:06:27.590Z,160
2016-03-04T08:07:27.624Z,165
2016-03-04T08:08:27.595Z,165
2016-03-04T08:09:27.629Z,160
2016-03-04T08:10:27.616Z,160
2016-03-04T08:11:27.635Z,160
2016-03-04T08:12:27.622Z,160
2016-03-04T08:13:27.639Z,160
2016-03-04T08:14:27.627Z,160
2016-03-04T08:15:27.551Z,160
2016-03-04T08:16:27.633Z,160
2016-03-04T08:17:27.651Z,165
2016-03-04T08:18:27.639Z,165
2016-03-04T08:19:27.672Z,170
2016-03-04T08:20:27.721Z,170
2016-03-04T08:21:27.677Z,175
2016-03-04T08:22:27.664Z,175
2016-03-04T08:23:27.683Z,180
2016-03-04T08:24:27.685Z,180
2016-03-04T08:25:27.672Z,185
2016-03-04T08:26:27.674Z,190
2016-03-04T08:27:27.677Z,190
2016-03-04T08:28:27.696Z,200
2016-03-04T08:29:27.683Z,195
2016-03-04T08:30:27.685Z,195
2016-03-04T08:31:27.704Z,195
2016-03-04T08:32:27.754Z,200
2016-03-04T08:33:27.724Z,200
2016-03-04T08:34:27.712Z,195
2016-03-04T08:35:27.730Z,195
2016-03-04T08:36:27.717Z,190
2016-03-04T08:37:27.751Z,185
2016-03-04T08:38:27.738Z,180
2016-03-04T08:39:27.741Z,180
2016-03-04T08:40:27.775Z,180
2016-03-04T08:41:27.762Z,180
2016-03-04T08:42:27.765Z,180
2016-03-04T08:43:27.751Z,175
2016-03-04T08:44:27.754Z,175
2016-03-04T08:45:27.773Z,175
2016-03-04T08:46:27.744Z,175
2016-03-04T08:47:27.778Z,175
2016-03-04T08:48:27.765Z,175
2016-03-04T08:49:27.800Z,175
2016-03-04T08:50:27.786Z,175
2016-03-04T08:51:27.789Z,170
2016-03-04T08:52:27.808Z,170
2016-03-04T08:53:27.794Z,170
2016-03-04T08:54:27.827Z,170
2016-03-04T08:55:27.800Z,175
2016-03-04T08:56:27.833Z,175
2016-03-04T08:57:27.805Z,175
2016-03-04T08:58:27.683Z,170
2016-03-04T08:59:27.826Z,170
2016-03-04T09:00:27.829Z,165
2016-03-04T09:01:27.832Z,165
2016-03-04T09:02:27.896Z,165
2016-03-04T09:03:27.852Z,165
2016-03-04T09:04:27.839Z,165
2016-03-04T09:05:27.844Z,165
2016-03-04T09:06:27.846Z,165
2016-03-04T09:07:27.911Z,165
2016-03-04T09:08:27.898Z,165
2016-03-04T09:09:27.869Z,165
2016-03-04T09:10:27.872Z,165
2016-03-04T09:11:27.906Z,165
2016-03-04T09:12:27.877Z,165
2016-03-04T09:13:27.912Z,165
2016-03-04T09:14:27.868Z,165
2016-03-04T09:15:27.902Z,165
2016-03-04T09:16:27.904Z,165
2016-03-04T09:17:27.891Z,170
2016-03-04T09:18:27.893Z,170
2016-03-04T09:19:27.896Z,170
2016-03-04T09:20:27.929Z,175
2016-03-04T09:21:27.902Z,175
2016-03-04T09:22:27.904Z,175
2016-03-04T09:23:27.923Z,180
2016-03-04T09:24:27.910Z,180
2016-03-04T09:25:27.943Z,180
2016-03-04T09:26:27.915Z,185
2016-03-04T09:27:27.965Z,185
2016-03-04T09:28:27.936Z,185
2016-03-04T09:29:27.939Z,185
2016-03-04T09:30:27.801Z,190
2016-03-04T09:31:27.944Z,190
2016-03-04T09:32:27.948Z,190
2016-03-04T09:33:27.950Z,190
2016-03-04T09:34:27.952Z,190
2016-03-04T09:35:27.970Z,190
2016-03-04T09:36:27.958Z,190
2016-03-04T09:37:28.008Z,195
2016-03-04T09:38:27.963Z,190
2016-03-04T09:39:27.966Z,190
2016-03-04T09:40:28.000Z,190
2016-03-04T09:41:27.972Z,190
2016-03-04T09:42:27.989Z,190
2016-03-04T09:43:27.977Z,195
2016-03-04T09:44:27.979Z,195
2016-03-04T09:45:27.997Z,195
2016-03-04T09:46:27.985Z,195
2016-03-04T09:47:28.002Z,195
2016-03-04T09:48:28.068Z,195
2016-03-04T09:49:28.024Z,195
2016-03-04T09:50:28.011Z,195
2016-03-04T09:51:28.046Z,190
2016-03-04T09:52:28.016Z,185
2016-03-04T09:53:28.018Z,185
2016-03-04T09:54:28.038Z,180
2016-03-04T09:55:28.024Z,175
2016-03-04T09:56:28.042Z,175
2016-03-04T09:57:28.030Z,175
2016-03-04T09:58:28.064Z,175
2016-03-04T09:59:28.067Z,175
2016-03-04T10:00:28.398Z,175
2016-03-04T10:01:28.556Z,175
2016-03-04T10:02:28.075Z,175
2016-03-04T10:03:28.078Z,175
2016-03-04T10:04:28.048Z,175
2016-03-04T10:05:28.082Z,175
2016-03-04T10:06:28.070Z,175
2016-03-04T10:07:28.072Z,170
2016-03-04T10:08:28.059Z,170
2016-03-04T10:09:28.094Z,170
2016-03-04T10:10:28.080Z,170
2016-03-04T10:11:28.099Z,170
2016-03-04T10:12:28.117Z,180
2016-03-04T10:13:28.088Z,175
2016-03-04T10:14:28.107Z,175
2016-03-04T10:15:28.125Z,175
2016-03-04T10:16:28.112Z,175
2016-03-04T10:17:28.116Z,175
2016-03-04T10:18:28.102Z,175
2016-03-04T10:19:28.135Z,180
2016-03-04T10:20:28.561Z,180
2016-03-04T10:21:28.141Z,180
2016-03-04T10:22:28.112Z,185
2016-03-04T10:23:28.132Z,185
2016-03-04T10:24:28.149Z,180
2016-03-04T10:25:28.152Z,180
2016-03-04T10:26:28.154Z,180
2016-03-04T10:27:28.126Z,180
2016-03-04T10:28:28.145Z,180
2016-03-04T10:29:28.162Z,180
2016-03-04T10:30:28.134Z,180
2016-03-04T10:31:27.980Z,180
2016-03-04T10:32:28.156Z,185
2016-03-04T10:33:28.142Z,185
2016-03-04T10:34:28.145Z,185
2016-03-04T10:35:28.164Z,185
2016-03-04T10:36:28.181Z,185
2016-03-04T10:37:28.169Z,185
2016-03-04T10:38:28.187Z,185
2016-03-04T10:39:28.174Z,185
2016-03-04T10:40:28.177Z,185
2016-03-04T10:41:28.164Z,185
2016-03-04T10:42:28.197Z,185
2016-03-04T10:43:28.169Z,185
2016-03-04T10:44:28.234Z,190
2016-03-04T10:45:28.191Z,190
2016-03-04T10:46:28.177Z,190
2016-03-04T10:47:28.210Z,190
2016-03-04T10:48:28.214Z,190
2016-03-04T10:49:28.201Z,190
2016-03-04T10:50:28.204Z,190
2016-03-04T10:51:28.191Z,190
2016-03-04T10:52:28.194Z,185
2016-03-04T10:53:28.227Z,185
2016-03-04T10:54:28.230Z,180
2016-03-04T10:55:28.217Z,180
2016-03-04T10:56:28.220Z,180
2016-03-04T10:57:28.223Z,175
2016-03-04T10:58:28.241Z,175
2016-03-04T10:59:28.415Z,175
2016-03-04T11:00:28.214Z,175
2016-03-04T11:01:28.234Z,175
2016-03-04T11:02:28.251Z,175
2016-03-04T11:03:28.238Z,175
2016-03-04T11:04:28.226Z,175
2016-03-04T11:05:28.245Z,175
2016-03-04T11:06:28.247Z,175
2016-03-04T11:07:28.249Z,175
2016-03-04T11:08:28.253Z,170
2016-03-04T11:09:28.270Z,170
2016-03-04T11:10:28.288Z,170
2016-03-04T11:11:28.276Z,170
2016-03-04T11:12:28.294Z,170
2016-03-04T11:13:28.250Z,170
2016-03-04T11:14:28.284Z,170
2016-03-04T11:15:28.255Z,165
2016-03-04T11:16:28.274Z,170
2016-03-04T11:17:28.276Z,165
2016-03-04T11:18:28.263Z,165
2016-03-04T11:19:28.313Z,165
2016-03-04T11:20:28.284Z,170
2016-03-04T11:21:28.319Z,170
2016-03-04T11:22:28.290Z,170
2016-03-04T11:23:28.292Z,170
2016-03-04T11:24:28.327Z,170
2016-03-04T11:25:28.298Z,170
2016-03-04T11:26:28.316Z,170
2016-03-04T11:27:28.334Z,170
2016-03-04T11:28:28.322Z,170
2016-03-04T11:29:28.340Z,170
2016-03-04T11:30:28.311Z,175
2016-03-04T11:31:28.314Z,175
2016-03-04T11:32:28.348Z,175
2016-03-04T11:33:28.319Z,175
2016-03-04T11:34:28.322Z,175
2016-03-04T11:35:28.200Z,175
2016-03-04T11:36:28.328Z,175
2016-03-04T11:37:28.330Z,175
2016-03-04T11:38:28.333Z,175
2016-03-04T11:39:28.336Z,175
2016-03-04T11:40:28.353Z,170
2016-03-04T11:41:28.341Z,170
2016-03-04T11:42:28.375Z,170
2016-03-04T11:43:28.362Z,170
2016-03-04T11:44:28.364Z,170
2016-03-04T11:45:28.366Z,170
2016-03-04T11:46:28.386Z,170
2016-03-04T11:47:28.357Z,170
2016-03-04T11:48:28.391Z,165
2016-03-04T11:49:28.394Z,165
2016-03-04T11:50:28.397Z,160
2016-03-04T11:51:28.399Z,155
2016-03-04T11:52:28.385Z,155
2016-03-04T11:53:28.389Z,150
2016-03-04T11:54:28.407Z,150
2016-03-04T11:55:28.393Z,150
2016-03-04T11:56:28.412Z,150
2016-03-04T11:57:28.399Z,150
2016-03-04T11:58:28.418Z,150
2016-03-04T11:59:28.404Z,150
2016-03-04T12:00:28.470Z,150
2016-03-04T12:01:28.426Z,150
2016-03-04T12:02:28.412Z,150
2016-03-04T12:03:28.415Z,155
2016-03-04T12:04:28.434Z,155
2016-03-04T12:05:28.421Z,155
2016-03-04T12:06:28.439Z,160
2016-03-04T12:07:28.426Z,165
2016-03-04T12:08:28.428Z,165
2016-03-04T12:09:28.431Z,165
2016-03-04T12:10:28.450Z,165
2016-03-04T12:11:28.469Z,165
2016-03-04T12:12:28.455Z,165
2016-03-04T12:13:28.458Z,170
2016-03-04T12:14:28.461Z,170
2016-03-04T12:15:28.432Z,170
2016-03-04T12:16:28.497Z,175
2016-03-04T12:17:28.469Z,175
2016-03-04T12:18:28.456Z,175
2016-03-04T12:19:28.474Z,175
2016-03-04T12:20:28.461Z,170
2016-03-04T12:21:28.464Z,170
2016-03-04T12:22:28.466Z,170
2016-03-04T12:23:28.485Z,170
2016-03-04T12:24:28.471Z,170
2016-03-04T12:25:28.475Z,170
2016-03-04T12:26:28.493Z,170
2016-03-04T12:27:28.479Z,165
2016-03-04T12:28:28.483Z,165
2016-03-04T12:29:28.485Z,165
2016-03-04T12:30:28.488Z,165
2016-03-04T12:31:28.506Z,165
2016-03-04T12:32:28.510Z,165
2016-03-04T12:33:28.496Z,160
2016-03-04T12:34:28.498Z,155
2016-03-04T12:35:28.502Z,155
2016-03-04T12:36:28.519Z,150
2016-03-04T12:37:28.507Z,150
2016-03-04T12:38:28.509Z,150
2016-03-04T12:39:28.512Z,150
2016-03-04T12:40:28.531Z,145
2016-03-04T12:41:28.533Z,145
2016-03-04T12:42:28.520Z,145
2016-03-04T12:43:28.522Z,140
2016-03-04T12:44:28.526Z,145
2016-03-04T12:45:28.544Z,140
2016-03-04T12:46:28.563Z,140
2016-03-04T12:47:28.533Z,140
2016-03-04T12:48:28.536Z,140
2016-03-04T12:49:28.539Z,140
2016-03-04T12:50:28.557Z,135
2016-03-04T12:51:28.560Z,135
2016-03-04T12:52:28.547Z,135
2016-03-04T12:53:28.550Z,135
2016-03-04T12:54:28.568Z,135
2016-03-04T12:55:28.555Z,135
2016-03-04T12:56:28.574Z,135
2016-03-04T12:57:28.560Z,130
2016-03-04T12:58:28.579Z,130
2016-03-04T12:59:28.598Z,125
2016-03-04T13:00:28.585Z,125
2016-03-04T13:01:28.603Z,125
2016-03-04T13:02:28.574Z,125
2016-03-04T13:03:28.608Z,125
2016-03-04T13:04:28.579Z,125
2016-03-04T13:05:28.598Z,125
2016-03-04T13:06:28.601Z,120
2016-03-04T13:07:28.587Z,120
2016-03-04T13:08:28.590Z,120
2016-03-04T13:09:28.609Z,120
2016-03-04T13:10:28.595Z,115
2016-03-04T13:11:28.598Z,115
2016-03-04T13:12:28.633Z,115
2016-03-04T13:13:28.604Z,115
2016-03-04T13:14:28.622Z,115
2016-03-04T13:15:28.624Z,120
2016-03-04T13:16:28.674Z,125
2016-03-04T13:17:28.630Z,130
2016-03-04T13:18:28.695Z,130
2016-03-04T13:19:28.635Z,130
2016-03-04T13:20:28.639Z,130
2016-03-04T13:21:28.625Z,130
2016-03-04T13:22:28.644Z,125
2016-03-04T13:23:28.646Z,125
2016-03-04T13:24:28.633Z,125
2016-03-04T13:25:28.652Z,125
2016-03-04T13:26:28.639Z,125
2016-03-04T13:27:28.657Z,120
2016-03-04T13:28:28.659Z,110
2016-03-04T13:29:28.679Z,105
2016-03-04T13:30:28.665Z,95
2016-03-04T13:31:28.667Z,90
2016-03-04T13:32:28.686Z,90
2016-03-04T13:33:28.674Z,90
2016-03-04T13:34:28.723Z,95
2016-03-04T13:35:28.678Z,95
2016-03-04T13:36:28.713Z,90
2016-03-04T13:37:28.684Z,85
2016-03-04T13:38:28.687Z,80
2016-03-04T13:39:28.705Z,75
2016-03-04T13:40:28.692Z,80
2016-03-04T13:41:28.711Z,85
2016-03-04T13:43:00.044Z,90
2016-03-04T13:43:28.716Z,90
2016-03-04T13:44:28.718Z,95
2016-03-04T13:45:28.722Z,90
2016-03-04T13:46:28.724Z,95
2016-03-04T13:47:28.773Z,90
2016-03-04T13:48:28.713Z,80
2016-03-04T13:49:28.733Z,75
2016-03-04T13:50:28.719Z,70
2016-03-04T13:51:28.721Z,70
2016-03-04T13:52:28.724Z,65
2016-03-04T13:53:28.727Z,60
2016-03-04T13:54:28.730Z,60
2016-03-04T13:55:28.732Z,70
2016-03-04T13:56:28.751Z,85
2016-03-04T13:57:28.754Z,95
2016-03-04T13:58:28.757Z,100
2016-03-04T13:59:28.743Z,95
2016-03-04T14:00:28.777Z,95
2016-03-04T14:01:28.765Z,95
2016-03-04T14:02:28.751Z,100
2016-03-04T14:03:28.785Z,105
2016-03-04T14:04:28.756Z,110
2016-03-04T14:05:28.775Z,105
2016-03-04T14:06:28.778Z,90
2016-03-04T14:07:28.765Z,80
2016-03-04T14:08:28.767Z,85
2016-03-04T14:09:28.770Z,90
2016-03-04T14:10:28.789Z,100
2016-03-04T14:11:28.775Z,105
2016-03-04T14:12:28.794Z,105
2016-03-04T14:13:28.765Z,105